Time;durP1;ratioP1;P1;durP2;ratioP2;P2;SDS_P1;SDS_P2;PMS_P1;PMS_P2;Temp;Humidity;BMP_temperature;BMP_pressure;BME280_temperature;BME280_humidity;BME280_pressure;Samples;Min_cycle;Max_cycle;Signal;HPM_P1;HPM_P2
2021/09/09 00:01:37;;;;;;;3.42;1.88;;;;;;;20.76;100.00;99095.63;5058905;28;20126;-75
2021/09/09 00:04:39;;;;;;;22.95;1.55;;;;;;;20.59;100.00;99098.25;5040753;28;20077;-75
2021/09/09 00:07:43;;;;;;;3.92;1.77;;;;;;;20.74;100.00;99089.78;5053247;28;20107;-74
2021/09/09 00:10:46;;;;;;;3.90;2.03;;;;;;;20.71;100.00;99105.03;5054217;28;20070;-75
2021/09/09 00:13:49;;;;;;;3.75;1.23;;;;;;;20.83;100.00;99089.22;5054367;28;20118;-75
2021/09/09 00:16:52;;;;;;;10.95;2.03;;;;;;;20.81;100.00;99091.84;5054138;28;20195;-75
2021/09/09 00:19:55;;;;;;;10.68;2.15;;;;;;;20.79;100.00;99094.47;5054184;28;20083;-75
2021/09/09 00:22:57;;;;;;;5.20;1.58;;;;;;;20.71;100.00;99082.41;5053154;28;20103;-75
2021/09/09 00:26:03;;;;;;;4.35;1.73;;;;;;;20.60;100.00;99094.06;5053498;28;20139;-75
2021/09/09 00:29:06;;;;;;;6.10;1.67;;;;;;;20.66;100.00;99091.81;5052832;28;20517;-77
2021/09/09 00:32:09;;;;;;;4.85;1.67;;;;;;;20.59;100.00;99092.59;5052647;28;20094;-77
2021/09/09 00:35:12;;;;;;;3.20;1.75;;;;;;;20.42;100.00;99095.91;5052851;28;20098;-77
2021/09/09 00:38:15;;;;;;;8.30;2.22;;;;;;;20.41;100.00;99090.84;5053143;28;20680;-76
2021/09/09 00:41:17;;;;;;;4.07;1.67;;;;;;;20.38;100.00;99077.81;5053148;28;20075;-76
2021/09/09 00:44:22;;;;;;;4.68;2.10;;;;;;;20.36;100.00;99086.09;5052255;28;20083;-77
2021/09/09 00:47:25;;;;;;;4.82;2.25;;;;;;;20.38;100.00;99083.47;5051141;28;20368;-75
2021/09/09 00:50:28;;;;;;;8.38;2.33;;;;;;;20.31;100.00;99078.56;5084248;28;20067;-77
2021/09/09 00:53:31;;;;;;;4.82;1.38;;;;;;;20.37;100.00;99082.72;5092190;28;20070;-76
2021/09/09 00:56:34;;;;;;;4.10;1.27;;;;;;;20.33;100.00;99075.94;5092006;28;20066;-77
2021/09/09 00:59:37;;;;;;;5.82;1.30;;;;;;;20.24;100.00;99073.63;5090976;28;20051;-77
2021/09/09 01:02:40;;;;;;;5.05;1.38;;;;;;;20.18;100.00;99073.75;5049152;28;20064;-76
2021/09/09 01:05:43;;;;;;;3.70;1.80;;;;;;;20.14;100.00;99070.56;5037417;28;20055;-75
2021/09/09 01:08:46;;;;;;;3.92;1.80;;;;;;;20.14;100.00;99064.16;5050012;28;20067;-75
2021/09/09 01:11:49;;;;;;;5.07;1.40;;;;;;;20.12;100.00;99061.13;5050096;28;20506;-75
2021/09/09 01:14:52;;;;;;;5.00;1.80;;;;;;;20.02;100.00;99057.31;5050308;28;20566;-75
2021/09/09 01:17:55;;;;;;;3.97;1.27;;;;;;;20.02;100.00;99058.09;5050047;28;20095;-76
2021/09/09 01:20:58;;;;;;;3.75;1.35;;;;;;;20.01;100.00;99053.72;5049682;28;20048;-76
2021/09/09 01:24:02;;;;;;;5.78;1.95;;;;;;;20.00;100.00;99055.06;5049854;28;20517;-77
2021/09/09 01:27:07;;;;;;;7.15;2.85;;;;;;;19.88;100.00;99055.97;5050059;28;20055;-76
2021/09/09 01:30:10;;;;;;;3.15;1.55;;;;;;;19.93;100.00;99058.59;5050015;28;20156;-75
2021/09/09 01:33:13;;;;;;;6.07;2.28;;;;;;;19.96;100.00;99057.50;5049732;28;20051;-76
2021/09/09 01:36:16;;;;;;;4.60;1.50;;;;;;;20.07;100.00;99062.06;5049710;28;20426;-76
2021/09/09 01:39:20;;;;;;;8.57;2.63;;;;;;;20.11;100.00;99063.19;5050491;28;20056;-77
2021/09/09 01:42:23;;;;;;;10.52;2.40;;;;;;;20.16;100.00;99070.00;5049815;28;20098;-75
2021/09/09 01:45:27;;;;;;;3.28;1.23;;;;;;;20.14;100.00;99050.75;5051044;28;20556;-75
2021/09/09 01:48:30;;;;;;;7.15;1.85;;;;;;;20.03;100.00;99053.19;5051385;28;20087;-74
2021/09/09 01:51:34;;;;;;;3.95;1.60;;;;;;;19.76;100.00;99047.06;5048981;28;20178;-75
2021/09/09 01:54:37;;;;;;;4.30;1.30;;;;;;;19.64;100.00;99057.19;5048706;28;20056;-75
2021/09/09 01:57:39;;;;;;;2.67;1.25;;;;;;;19.56;100.00;99045.81;5048560;28;20469;-75
2021/09/09 02:00:42;;;;;;;3.88;1.23;;;;;;;19.54;100.00;99048.44;5055324;28;20052;-75
2021/09/09 02:03:46;;;;;;;4.68;1.88;;;;;;;19.65;100.00;99039.66;5069584;28;20779;-77
2021/09/09 02:06:49;;;;;;;3.35;1.40;;;;;;;19.52;100.00;99039.78;5071303;28;20043;-75
2021/09/09 02:09:52;;;;;;;3.97;1.10;;;;;;;19.44;100.00;99032.59;5071614;28;20399;-74
2021/09/09 02:12:55;;;;;;;3.65;1.58;;;;;;;19.27;100.00;99035.84;5071810;28;20097;-75
2021/09/09 02:15:57;;;;;;;4.82;2.13;;;;;;;19.16;100.00;99041.81;5058978;28;20406;-75
2021/09/09 02:19:00;;;;;;;2.65;1.33;;;;;;;19.04;100.00;99032.09;5058791;28;20162;-74
2021/09/09 02:22:04;;;;;;;2.70;1.95;;;;;;;18.95;100.00;99043.88;5071734;28;20059;-75
2021/09/09 02:25:08;;;;;;;2.67;1.52;;;;;;;18.85;100.00;99028.78;5071489;28;20047;-74
2021/09/09 02:28:11;;;;;;;3.13;1.55;;;;;;;18.83;100.00;99043.44;5071313;28;20057;-75
2021/09/09 02:31:14;;;;;;;7.88;2.03;;;;;;;18.64;100.00;99042.91;5071267;28;20044;-75
2021/09/09 02:34:17;;;;;;;5.75;1.58;;;;;;;18.58;100.00;99041.53;5070957;28;20559;-75
2021/09/09 02:37:20;;;;;;;3.50;2.00;;;;;;;18.62;100.00;99036.28;5070455;28;20058;-75
2021/09/09 02:40:23;;;;;;;4.50;2.72;;;;;;;18.77;100.00;99030.78;5070513;28;20178;-75
2021/09/09 02:43:26;;;;;;;10.57;2.30;;;;;;;18.80;100.00;99036.06;5070440;28;20043;-75
2021/09/09 02:46:29;;;;;;;4.53;1.30;;;;;;;18.94;100.00;99042.38;5070784;28;20048;-76
2021/09/09 02:49:32;;;;;;;5.25;1.90;;;;;;;19.07;100.00;99033.84;5070597;28;20047;-76
2021/09/09 02:52:35;;;;;;;4.97;1.98;;;;;;;19.25;100.00;99027.16;5069984;28;20101;-76
2021/09/09 02:55:38;;;;;;;4.72;2.10;;;;;;;19.16;100.00;99019.22;5072988;28;20105;-76
2021/09/09 02:58:41;;;;;;;4.43;1.77;;;;;;;18.87;100.00;99020.50;5074550;28;20086;-75
2021/09/09 03:01:44;;;;;;;4.63;1.75;;;;;;;18.71;100.00;99013.25;5059205;28;20403;-74
2021/09/09 03:04:46;;;;;;;6.03;1.77;;;;;;;18.67;100.00;99010.00;5054649;28;20406;-74
2021/09/09 03:07:49;;;;;;;5.80;1.10;;;;;;;18.78;100.00;99002.00;5054408;28;20108;-75
2021/09/09 03:10:52;;;;;;;6.85;1.73;;;;;;;18.58;100.00;99005.59;5041831;28;20105;-75
2021/09/09 03:13:55;;;;;;;7.13;1.88;;;;;;;18.59;100.00;99023.28;5054389;28;20079;-76
2021/09/09 03:16:58;;;;;;;6.82;1.95;;;;;;;18.78;100.00;99006.88;5041642;28;20587;-76
2021/09/09 03:20:01;;;;;;;4.40;2.67;;;;;;;18.79;100.00;99011.25;5055231;28;20105;-76
2021/09/09 03:23:03;;;;;;;7.28;2.70;;;;;;;18.55;100.00;99005.97;5058148;28;20051;-76
2021/09/09 03:26:06;;;;;;;6.15;1.85;;;;;;;18.56;100.00;99013.13;5053721;28;20106;-76
2021/09/09 03:29:09;;;;;;;6.07;1.88;;;;;;;18.64;100.00;99017.53;5041252;28;20060;-77
2021/09/09 03:32:13;;;;;;;8.75;2.45;;;;;;;18.67;100.00;99007.94;5054217;28;20067;-75
2021/09/09 03:35:15;;;;;;;2.25;1.58;;;;;;;18.70;100.00;98995.56;5053695;28;20132;-74
2021/09/09 03:38:18;;;;;;;5.35;2.05;;;;;;;18.85;100.00;98994.91;5041924;28;20059;-74
2021/09/09 03:41:21;;;;;;;1.98;1.35;;;;;;;18.90;100.00;98986.31;5052811;28;20506;-76
2021/09/09 03:44:24;;;;;;;4.45;1.33;;;;;;;18.97;100.00;98993.31;5053460;28;20055;-76
2021/09/09 03:47:27;;;;;;;5.68;2.53;;;;;;;18.96;100.00;98988.22;5053588;28;20502;-75
2021/09/09 03:50:30;;;;;;;5.68;1.88;;;;;;;18.93;100.00;99001.34;5053203;28;20540;-74
2021/09/09 03:53:33;;;;;;;4.95;2.88;;;;;;;18.94;100.00;98991.59;5053230;28;20130;-74
2021/09/09 03:56:36;;;;;;;19.83;2.45;;;;;;;18.91;100.00;98979.34;5053094;28;20102;-75
2021/09/09 03:59:39;;;;;;;6.32;2.03;;;;;;;18.99;100.00;98978.66;5053632;28;20442;-75
2021/09/09 04:02:42;;;;;;;4.97;1.83;;;;;;;19.05;100.00;98974.38;5052947;28;20087;-76
2021/09/09 04:05:45;;;;;;;7.63;2.28;;;;;;;19.05;100.00;98973.59;5052472;28;20052;-75
2021/09/09 04:08:48;;;;;;;4.32;2.00;;;;;;;19.05;100.00;98962.31;5052628;28;20056;-75
2021/09/09 04:11:51;;;;;;;6.13;2.83;;;;;;;19.01;100.00;98959.84;5053495;28;20111;-75
2021/09/09 04:14:53;;;;;;;6.68;2.85;;;;;;;19.05;100.00;98963.06;5053017;28;20052;-75
2021/09/09 04:17:56;;;;;;;6.05;2.88;;;;;;;19.01;100.00;98962.69;5053116;28;20143;-76
2021/09/09 04:20:59;;;;;;;7.88;1.83;;;;;;;19.14;100.00;98956.91;5052911;28;20048;-76
2021/09/09 04:24:02;;;;;;;3.92;1.92;;;;;;;19.13;100.00;98952.56;5052858;28;20052;-76
2021/09/09 04:27:05;;;;;;;6.60;1.73;;;;;;;19.07;100.00;98954.81;5053229;28;20056;-76
2021/09/09 04:30:09;;;;;;;7.90;2.08;;;;;;;19.05;100.00;98962.31;5053244;28;20458;-79
2021/09/09 04:33:12;;;;;;;8.55;2.03;;;;;;;19.05;100.00;98951.78;5052984;28;20107;-79
2021/09/09 04:36:14;;;;;;;5.85;1.63;;;;;;;19.07;100.00;98943.53;5052575;28;20064;-76
2021/09/09 04:39:17;;;;;;;5.72;2.10;;;;;;;19.20;100.00;98945.47;5052869;28;20099;-77
2021/09/09 04:42:20;;;;;;;7.45;2.50;;;;;;;19.11;100.00;98943.91;5052446;28;20060;-77
2021/09/09 04:45:23;;;;;;;6.03;2.05;;;;;;;19.08;100.00;98933.00;5052020;28;20097;-76
2021/09/09 04:48:26;;;;;;;6.05;2.33;;;;;;;19.11;100.00;98932.63;5052836;28;20055;-75
2021/09/09 04:51:29;;;;;;;5.10;2.17;;;;;;;19.19;100.00;98927.75;5052613;28;20048;-75
2021/09/09 04:54:31;;;;;;;4.28;1.55;;;;;;;19.18;100.00;98942.44;5051668;28;20056;-75
2021/09/09 04:57:34;;;;;;;7.25;2.97;;;;;;;19.06;100.00;98936.34;5052243;28;20497;-77
2021/09/09 05:00:37;;;;;;;3.33;1.35;;;;;;;18.86;100.00;98940.00;5057890;28;20051;-77
2021/09/09 05:03:40;;;;;;;9.95;3.70;;;;;;;18.79;100.00;98949.94;5071982;28;20497;-77
2021/09/09 05:06:42;;;;;;;9.82;2.17;;;;;;;18.74;100.00;98950.84;5071983;28;20067;-75
2021/09/09 05:09:46;;;;;;;6.65;2.92;;;;;;;18.74;100.00;98950.84;5073798;28;20547;-75
2021/09/09 05:12:49;;;;;;;6.65;1.77;;;;;;;18.70;100.00;98950.44;5088576;28;20075;-75
2021/09/09 05:15:51;;;;;;;10.07;3.03;;;;;;;18.69;100.00;98942.53;5072170;28;20525;-78
2021/09/09 05:18:54;;;;;;;3.83;1.80;;;;;;;18.54;100.00;98945.97;5070796;28;20110;-77
2021/09/09 05:21:57;;;;;;;10.80;3.10;;;;;;;18.41;100.00;98946.03;5072291;28;20048;-77
2021/09/09 05:25:02;;;;;;;6.88;2.50;;;;;;;18.30;100.00;98943.50;5071932;28;20050;-77
2021/09/09 05:28:05;;;;;;;9.82;3.00;;;;;;;18.25;100.00;98949.28;5071684;28;20066;-77
2021/09/09 05:31:07;;;;;;;5.43;1.98;;;;;;;18.23;100.00;98947.03;5071884;28;20059;-76
2021/09/09 05:34:10;;;;;;;9.85;2.72;;;;;;;18.10;100.00;98947.81;5071418;28;20098;-74
2021/09/09 05:37:13;;;;;;;7.20;2.00;;;;;;;18.28;100.00;98948.19;5066218;28;20083;-74
2021/09/09 05:40:16;;;;;;;9.93;3.67;;;;;;;18.27;100.00;98943.84;5050925;28;21050;-77
2021/09/09 05:43:19;;;;;;;15.27;3.53;;;;;;;18.27;100.00;98952.31;5037148;28;20602;-75
2021/09/09 05:46:23;;;;;;;9.18;2.67;;;;;;;18.38;100.00;98949.22;5034599;28;20113;-74
2021/09/09 05:49:26;;;;;;;4.97;1.88;;;;;;;18.44;100.00;98953.44;5037081;28;20098;-75
2021/09/09 05:52:28;;;;;;;3.72;1.95;;;;;;;18.53;100.00;98952.19;5037380;28;20067;-75
2021/09/09 05:55:31;;;;;;;6.75;1.70;;;;;;;18.56;100.00;98951.09;5037428;28;20110;-75
2021/09/09 05:58:34;;;;;;;4.13;2.13;;;;;;;18.51;100.00;98958.38;5036742;28;20707;-75
2021/09/09 06:01:37;;;;;;;11.95;3.85;;;;;;;18.60;100.00;98962.78;5014395;28;20043;-75
2021/09/09 06:04:41;;;;;;;10.57;2.90;;;;;;;18.43;100.00;98959.59;5016649;28;20051;-75
2021/09/09 06:07:45;;;;;;;16.08;4.47;;;;;;;18.49;100.00;98952.53;5036247;28;20069;-75
2021/09/09 06:10:48;;;;;;;15.55;3.47;;;;;;;18.58;100.00;98965.38;5037645;28;20332;-75
2021/09/09 06:13:51;;;;;;;12.80;2.85;;;;;;;18.74;100.00;98955.72;5036212;28;20047;-75
2021/09/09 06:16:54;;;;;;;5.78;2.85;;;;;;;18.83;100.00;98949.56;5029153;28;20051;-75
2021/09/09 06:19:57;;;;;;;5.05;2.25;;;;;;;18.72;100.00;98963.97;5037320;28;20630;-75
2021/09/09 06:23:00;;;;;;;12.05;3.03;;;;;;;18.93;100.00;98967.50;5036432;28;20932;-75
2021/09/09 06:26:03;;;;;;;7.20;2.38;;;;;;;19.06;100.00;98967.41;5038370;28;20071;-75
2021/09/09 06:29:06;;;;;;;6.40;2.53;;;;;;;18.97;100.00;98970.75;5038307;28;20205;-75
2021/09/09 06:32:09;;;;;;;7.22;2.95;;;;;;;19.14;100.00;98968.22;5042037;28;20071;-75
2021/09/09 06:35:12;;;;;;;9.35;2.65;;;;;;;19.25;100.00;98967.13;5042760;28;20048;-75
2021/09/09 06:38:15;;;;;;;9.80;3.80;;;;;;;19.36;100.00;98967.59;5041857;28;20902;-75
2021/09/09 06:41:18;;;;;;;10.65;3.40;;;;;;;19.47;100.00;98964.44;5041875;28;20048;-75
2021/09/09 06:44:21;;;;;;;6.47;2.22;;;;;;;19.64;100.00;98967.50;5027150;28;20835;-75
2021/09/09 06:47:24;;;;;;;11.02;4.40;;;;;;;19.77;100.00;98965.88;5020876;28;20758;-76
2021/09/09 06:50:27;;;;;;;8.98;3.17;;;;;;;19.88;100.00;98971.19;5031556;28;20051;-76
2021/09/09 06:53:30;;;;;;;10.07;3.60;;;;;;;20.05;100.00;98965.75;5040464;28;20217;-76
2021/09/09 06:56:33;;;;;;;8.55;2.17;;;;;;;20.25;100.00;98959.19;5042230;28;20101;-75
2021/09/09 06:59:37;;;;;;;16.80;3.80;;;;;;;20.40;100.00;98956.38;5039053;28;20670;-76
2021/09/09 07:02:40;;;;;;;8.15;3.60;;;;;;;20.56;100.00;98943.75;5034033;28;20056;-76
2021/09/09 07:05:43;;;;;;;17.23;4.53;;;;;;;20.81;100.00;98941.81;5039977;28;20071;-76
2021/09/09 07:08:46;;;;;;;11.73;3.75;;;;;;;21.04;100.00;98941.81;5039354;28;20043;-76
2021/09/09 07:11:49;;;;;;;13.55;5.03;;;;;;;21.19;100.00;98946.69;5039551;28;20058;-76
2021/09/09 07:14:52;;;;;;;13.65;4.78;;;;;;;21.32;100.00;98940.78;5038952;28;20074;-76
2021/09/09 07:17:55;;;;;;;6.80;2.78;;;;;;;21.52;100.00;98948.28;5038426;28;20059;-77
2021/09/09 07:20:58;;;;;;;21.35;7.10;;;;;;;21.81;100.00;98944.53;5026613;28;20621;-76
2021/09/09 07:24:01;;;;;;;10.90;4.00;;;;;;;21.96;100.00;98942.97;5027356;28;20620;-74
2021/09/09 07:27:04;;;;;;;7.68;3.03;;;;;;;22.09;100.00;98945.53;5038811;28;20097;-74
2021/09/09 07:30:08;;;;;;;7.45;3.70;;;;;;;22.17;100.00;98938.50;5039808;28;20162;-74
2021/09/09 07:33:11;;;;;;;12.68;4.35;;;;;;;22.21;100.00;98944.50;5040112;28;20062;-74
2021/09/09 07:36:14;;;;;;;10.55;4.18;;;;;;;22.22;100.00;98946.00;5039700;28;20083;-74
2021/09/09 07:39:16;;;;;;;11.10;3.47;;;;;;;22.01;100.00;98931.41;5039694;28;20067;-74
2021/09/09 07:42:20;;;;;;;13.57;4.10;;;;;;;22.08;100.00;98941.94;5038727;28;20055;-74
2021/09/09 07:45:23;;;;;;;10.98;3.90;;;;;;;22.05;100.00;98948.75;5039475;28;20039;-74
2021/09/09 07:48:27;;;;;;;12.10;3.40;;;;;;;22.22;100.00;98943.16;5039911;28;20793;-74
2021/09/09 07:51:30;;;;;;;17.42;4.35;;;;;;;22.28;100.00;98943.69;5039197;28;20069;-74
2021/09/09 07:54:33;;;;;;;16.42;5.13;;;;;;;22.30;100.00;98940.28;5038380;28;20190;-77
2021/09/09 07:57:37;;;;;;;10.63;3.28;;;;;;;22.33;100.00;98939.88;5027069;28;20151;-75
2021/09/09 08:00:40;;;;;;;15.77;4.70;;;;;;;22.48;100.00;98945.41;5030438;28;20488;-75
2021/09/09 08:03:43;;;;;;;13.77;5.18;;;;;;;22.47;100.00;98949.59;5018673;28;20064;-74
2021/09/09 08:06:47;;;;;;;17.70;5.00;;;;;;;22.53;100.00;98952.19;5019516;28;20051;-74
2021/09/09 08:09:50;;;;;;;13.35;4.65;;;;;;;22.63;100.00;98956.66;5019952;28;20044;-74
2021/09/09 08:12:52;;;;;;;11.10;5.40;;;;;;;22.57;100.00;98953.28;5019729;28;20044;-74
2021/09/09 08:15:56;;;;;;;15.98;5.22;;;;;;;22.67;100.00;98947.00;5002878;28;20079;-74
2021/09/09 08:18:59;;;;;;;12.88;3.70;;;;;;;22.70;100.00;98945.84;5007323;28;20151;-76
2021/09/09 08:22:02;;;;;;;13.05;4.90;;;;;;;22.80;100.00;98952.38;5019478;28;20044;-75
2021/09/09 08:25:06;;;;;;;16.38;4.95;;;;;;;22.79;100.00;98945.94;5019291;28;20056;-76
2021/09/09 08:28:09;;;;;;;19.63;6.20;;;;;;;22.81;100.00;98948.19;5018766;28;20063;-76
2021/09/09 08:31:11;;;;;;;17.67;5.93;;;;;;;22.77;100.00;98954.28;5019565;28;20686;-75
2021/09/09 08:34:14;;;;;;;20.38;6.03;;;;;;;22.76;100.00;98961.28;5018452;28;20076;-75
2021/09/09 08:37:17;;;;;;;23.63;5.47;;;;;;;22.88;100.00;98964.41;5019304;28;20051;-76
2021/09/09 08:40:22;;;;;;;13.77;4.25;;;;;;;22.79;100.00;98962.22;5022197;28;20211;-75
2021/09/09 08:43:25;;;;;;;17.88;6.47;;;;;;;22.88;100.00;98970.09;5021210;28;20175;-75
2021/09/09 08:46:28;;;;;;;16.70;5.35;;;;;;;23.01;100.00;98961.25;5020863;28;20556;-77
2021/09/09 08:49:31;;;;;;;24.38;6.43;;;;;;;23.22;100.00;98964.41;5021442;28;20079;-79
2021/09/09 08:52:36;;;;;;;16.20;5.55;;;;;;;23.43;100.00;98967.66;5021065;28;20076;-78
2021/09/09 08:55:39;;;;;;;12.43;5.22;;;;;;;23.52;100.00;98957.69;5020209;28;20099;-76
2021/09/09 08:58:43;;;;;;;17.77;5.07;;;;;;;23.62;100.00;98961.34;5018853;28;20463;-76
2021/09/09 09:02:07;;;;;;;15.63;5.20;;;;;;;23.59;100.00;98963.25;5034041;28;20947;-77
2021/09/09 09:05:10;;;;;;;11.32;5.18;;;;;;;23.80;100.00;98960.72;5038464;28;20039;-77
2021/09/09 09:08:13;;;;;;;18.13;6.20;;;;;;;24.21;100.00;98959.03;5038058;28;20644;-77
2021/09/09 09:11:28;;;;;;;21.58;5.18;;;;;;;24.21;100.00;98946.91;5025556;28;20047;-79
2021/09/09 09:14:31;;;;;;;20.58;4.47;;;;;;;24.19;100.00;98946.75;5038139;28;20097;-78
2021/09/09 09:17:55;;;;;;;8.50;4.53;;;;;;;24.07;100.00;98952.22;5036997;28;20793;-77
2021/09/09 09:20:58;;;;;;;12.73;4.95;;;;;;;24.12;100.00;98948.34;5037854;28;20115;-78
2021/09/09 09:24:02;;;;;;;14.57;5.32;;;;;;;24.38;100.00;98955.34;5025693;28;20079;-77
2021/09/09 09:27:09;;;;;;;16.85;3.60;;;;;;;24.31;100.00;98956.97;5038290;28;20734;-78
2021/09/09 09:30:13;;;;;;;20.20;5.90;;;;;;;24.26;100.00;98960.09;5037955;28;20616;-77
2021/09/09 09:33:30;;;;;;;12.02;4.90;;;;;;;24.30;100.00;98963.28;5038452;28;20110;-77
2021/09/09 09:36:35;;;;;;;12.00;4.60;;;;;;;24.26;100.00;98960.09;5036525;28;20298;-77
2021/09/09 09:39:38;;;;;;;14.88;4.60;;;;;;;24.30;100.00;98971.81;5032501;28;20157;-78
2021/09/09 09:42:42;;;;;;;13.90;5.53;;;;;;;24.23;100.00;98966.97;5025348;28;20336;-78
2021/09/09 09:45:50;;;;;;;15.70;5.78;;;;;;;24.22;100.00;98959.78;5027720;28;20180;-77
2021/09/09 09:48:54;;;;;;;12.02;5.20;;;;;;;24.23;100.00;98966.97;5028126;28;20064;-78
2021/09/09 09:52:00;;;;;;;16.63;5.72;;;;;;;24.37;100.00;98965.97;5026985;28;20060;-78
2021/09/09 09:55:04;;;;;;;15.18;4.80;;;;;;;24.51;100.00;98966.34;5026216;28;20050;-77
2021/09/09 09:58:07;;;;;;;15.57;5.38;;;;;;;24.52;100.00;98959.28;5026669;28;20078;-78
2021/09/09 10:01:10;;;;;;;13.55;5.28;;;;;;;24.73;100.00;98957.41;5027479;28;20052;-79
2021/09/09 10:04:21;;;;;;;14.93;3.75;;;;;;;24.91;100.00;98960.94;5027776;28;20067;-77
2021/09/09 10:07:24;;;;;;;13.02;4.28;;;;;;;24.99;100.00;98961.56;5027620;28;20328;-77
2021/09/09 10:10:27;;;;;;;16.00;4.63;;;;;;;25.06;100.00;98957.81;5028773;28;20071;-77
2021/09/09 10:13:29;;;;;;;12.90;4.93;;;;;;;25.03;100.00;98963.97;5028072;28;20079;-78
2021/09/09 10:16:38;;;;;;;14.88;4.88;;;;;;;25.01;100.00;98964.56;5015339;28;20136;-78
2021/09/09 10:19:42;;;;;;;8.50;3.22;;;;;;;24.97;100.00;98963.50;5028417;28;20136;-77
2021/09/09 10:23:03;;;;;;;11.88;3.72;;;;;;;24.92;100.00;98962.44;5015438;28;20070;-77
2021/09/09 10:26:06;;;;;;;9.70;3.30;;;;;;;24.73;100.00;98962.38;5027707;28;20511;-77
2021/09/09 10:29:41;;;;;;;8.82;3.30;;;;;;;24.76;100.00;98961.19;5026066;28;20286;-77
2021/09/09 10:32:50;;;;;;;7.90;4.03;;;;;;;24.80;100.00;98961.50;5021152;28;20098;-77
2021/09/09 10:35:52;;;;;;;17.67;4.95;;;;;;;24.86;100.00;98964.06;5025994;28;20144;-77
2021/09/09 10:38:56;;;;;;;11.05;3.65;;;;;;;25.08;100.00;98975.06;5023706;28;20055;-77
2021/09/09 10:42:00;;;;;;;11.75;4.32;;;;;;;25.19;100.00;98963.06;5016536;28;20062;-78
2021/09/09 10:45:04;;;;;;;15.23;3.92;;;;;;;25.28;100.00;98967.28;5047970;28;20126;-76
2021/09/09 10:48:18;;;;;;;10.02;3.70;;;;;;;25.30;100.00;98967.41;5026075;28;20634;-76
2021/09/09 10:51:21;;;;;;;6.75;2.47;;;;;;;25.24;100.00;98964.88;5029208;28;20063;-77
2021/09/09 10:54:24;;;;;;;8.35;2.47;;;;;;;25.19;100.00;98951.66;5024060;28;20559;-76
2021/09/09 10:57:27;;;;;;;7.78;2.70;;;;;;;25.17;100.00;98959.31;5015771;28;20560;-76
2021/09/09 11:00:55;;;;;;;8.85;4.18;;;;;;;25.26;100.00;98956.47;5036580;28;20078;-76
2021/09/09 11:03:57;;;;;;;16.38;4.22;;;;;;;25.60;100.00;98955.44;5037347;28;20181;-76
2021/09/09 11:07:01;;;;;;;12.43;4.43;;;;;;;25.84;100.00;98948.66;5036586;28;20217;-76
2021/09/09 11:10:08;;;;;;;11.52;4.03;;;;;;;26.03;100.00;98953.56;5036540;28;20127;-77
2021/09/09 11:13:28;;;;;;;7.47;3.25;;;;;;;26.04;100.00;98940.78;5020640;28;20126;-79
2021/09/09 11:16:33;;;;;;;16.77;4.33;;;;;;;26.25;100.00;98938.03;5020865;28;20051;-76
2021/09/09 11:19:36;;;;;;;6.05;2.97;;;;;;;26.39;100.00;98939.03;5026519;28;20821;-76
2021/09/09 11:22:39;;;;;;;8.73;2.40;;;;;;;26.43;100.00;98939.31;5041414;28;20063;-76
2021/09/09 11:25:42;;;;;;;8.75;2.00;;;;;;;26.74;100.00;98927.91;5042483;28;20416;-76
2021/09/09 11:28:46;;;;;;;10.20;2.20;;;;;;;26.79;100.00;98933.28;5043126;28;20839;-76
2021/09/09 11:31:52;;;;;;;4.28;1.20;;;;;;;26.82;100.00;98925.59;5042929;28;20110;-76
2021/09/09 11:35:11;;;;;;;5.90;1.58;;;;;;;26.83;100.00;98916.41;5042149;28;20052;-75
2021/09/09 11:38:29;;;;;;;3.88;1.27;;;;;;;26.97;100.00;98914.50;5041458;28;20180;-76
2021/09/09 11:41:33;;;;;;;2.40;0.63;;;;;;;26.96;100.00;98907.28;5041334;28;20160;-76
2021/09/09 11:44:41;;;;;;;3.85;1.83;;;;;;;26.95;100.00;98907.91;5037905;28;20578;-76
2021/09/09 11:47:44;;;;;;;5.65;1.00;;;;;;;26.91;100.00;98911.25;5039467;28;20583;-76
2021/09/09 11:50:48;;;;;;;4.80;0.93;;;;;;;26.71;100.00;98909.84;5021371;28;20671;-76
2021/09/09 11:53:51;;;;;;;4.95;1.60;;;;;;;26.78;100.00;98908.94;5039338;28;20105;-75
2021/09/09 11:57:16;;;;;;;4.07;1.40;;;;;;;27.25;100.00;98907.06;5039584;28;20055;-76
2021/09/09 12:00:19;;;;;;;1.90;0.80;;;;;;;27.37;100.00;98904.28;5035309;28;20082;-75
2021/09/09 12:03:22;;;;;;;2.40;0.70;;;;;;;27.05;100.00;98897.91;5018045;28;20296;-76
2021/09/09 12:06:26;;;;;;;4.95;0.43;;;;;;;26.75;100.00;98898.72;5019355;28;20083;-76
2021/09/09 12:09:33;;;;;;;0.77;0.40;;;;;;;26.39;100.00;98889.75;5018698;28;20048;-75
2021/09/09 12:12:37;;;;;;;2.63;0.38;;;;;;;26.80;100.00;98889.06;5020801;28;20862;-76
2021/09/09 12:15:40;;;;;;;1.83;0.52;;;;;;;27.05;100.00;98880.75;5020020;28;20133;-76
2021/09/09 12:18:45;;;;;;;2.35;0.40;;;;;;;27.29;100.00;98893.03;5020000;28;20047;-76
2021/09/09 12:21:54;;;;;;;2.08;0.68;;;;;;;27.41;100.00;98893.13;5021283;28;20099;-76
2021/09/09 12:24:57;;;;;;;2.63;0.70;;;;;;;27.38;100.00;98897.19;5020898;28;20044;-77
2021/09/09 12:28:08;;;;;;;2.30;0.60;;;;;;;27.08;100.00;98892.31;5021034;28;20048;-76
2021/09/09 12:31:11;;;;;;;1.42;0.77;;;;;;;26.98;100.00;98890.28;5021247;28;20083;-76
2021/09/09 12:34:19;;;;;;;2.42;0.38;;;;;;;27.18;100.00;98888.00;5021443;28;20048;-76
2021/09/09 12:37:23;;;;;;;2.97;0.85;;;;;;;27.27;100.00;98875.75;5019332;28;20056;-76
2021/09/09 12:40:46;;;;;;;1.58;0.40;;;;;;;27.28;100.00;98876.50;5019700;28;20049;-76
2021/09/09 12:43:58;;;;;;;2.83;0.20;;;;;;;27.07;100.00;98879.41;5019313;28;20076;-75
2021/09/09 12:47:16;;;;;;;0.63;0.30;;;;;;;26.98;100.00;98875.25;5018502;28;20398;-76
2021/09/09 12:50:34;;;;;;;1.20;0.20;;;;;;;26.90;100.00;98874.69;5038282;28;20372;-76
2021/09/09 12:53:38;;;;;;;1.13;0.30;;;;;;;26.84;100.00;98883.63;5038739;28;20087;-76
2021/09/09 12:56:49;;;;;;;2.47;0.20;;;;;;;26.72;100.00;98882.78;5038188;28;20063;-76
2021/09/09 12:59:52;;;;;;;0.30;0.10;;;;;;;26.60;100.00;98873.38;5038973;28;20113;-75
2021/09/09 13:02:55;;;;;;;1.00;0.10;;;;;;;26.46;100.00;98881.00;5019295;28;20118;-76
2021/09/09 13:06:00;;;;;;;1.52;0.10;;;;;;;26.36;100.00;98868.13;5018861;28;20048;-75
2021/09/09 13:09:03;;;;;;;1.20;0.47;;;;;;;26.29;100.00;98875.53;5019110;28;20254;-76
2021/09/09 13:12:06;;;;;;;0.82;0.38;;;;;;;26.06;100.00;98864.63;5019423;28;20096;-75
2021/09/09 13:15:10;;;;;;;0.38;0.17;;;;;;;25.89;100.00;98864.09;5019258;28;20048;-75
2021/09/09 13:18:13;;;;;;;1.13;0.17;;;;;;;25.68;100.00;98861.16;5019233;28;20118;-76
2021/09/09 13:21:25;;;;;;;1.42;0.43;;;;;;;25.48;100.00;98858.38;5018426;28;20203;-76
2021/09/09 13:24:28;;;;;;;1.30;0.20;;;;;;;25.44;100.00;98860.94;5018558;28;20048;-76
2021/09/09 13:27:31;;;;;;;5.13;0.57;;;;;;;25.39;100.00;98849.78;5019093;28;20664;-75
2021/09/09 13:30:39;;;;;;;4.85;0.55;;;;;;;25.23;100.00;98855.06;5018467;28;20052;-76
2021/09/09 13:33:42;;;;;;;1.45;0.20;;;;;;;25.78;100.00;98850.47;5018079;28;20204;-76
2021/09/09 13:36:45;;;;;;;0.63;0.43;;;;;;;25.98;100.00;98855.50;5018581;28;20047;-76
2021/09/09 13:39:48;;;;;;;1.90;0.32;;;;;;;25.93;100.00;98850.09;5018265;28;20052;-75
2021/09/09 13:42:51;;;;;;;1.35;0.57;;;;;;;25.67;100.00;98857.56;5019449;28;20063;-76
2021/09/09 13:45:54;;;;;;;1.35;0.60;;;;;;;25.32;100.00;98848.59;5019215;28;20931;-75
2021/09/09 13:48:57;;;;;;;6.93;0.15;;;;;;;25.32;100.00;98842.91;5005686;28;20067;-75
2021/09/09 13:52:00;;;;;;;0.63;0.20;;;;;;;25.12;100.00;98849.25;5006042;28;20117;-75
2021/09/09 13:55:05;;;;;;;0.95;0.50;;;;;;;25.02;100.00;98846.38;5017440;28;20059;-75
2021/09/09 13:58:08;;;;;;;0.82;0.17;;;;;;;24.90;100.00;98848.34;5018141;28;20122;-76
2021/09/09 14:01:11;;;;;;;1.10;0.20;;;;;;;24.84;100.00;98853.56;5028985;28;20220;-76
2021/09/09 14:04:14;;;;;;;0.40;0.10;;;;;;;24.72;100.00;98855.50;5038711;28;20114;-75
2021/09/09 14:07:17;;;;;;;3.00;0.30;;;;;;;24.65;100.00;98853.53;5040183;28;20101;-76
2021/09/09 14:10:20;;;;;;;1.65;0.20;;;;;;;24.69;100.00;98853.81;5039445;28;20089;-76
2021/09/09 14:13:23;;;;;;;1.08;0.30;;;;;;;24.79;100.00;98860.34;5024976;28;20051;-76